sensor_id;sensor_type;location;lat;lon;timestamp;P1;P2;P0
69224;PMS1003;56333;51.306;17.056;2023-12-28T00:01:39;21.30;6.80;
69224;PMS1003;56333;51.306;17.056;2023-12-28T00:03:08;21.70;14.20;
69224;PMS1003;56333;51.306;17.056;2023-12-28T00:04:36;23.50;14.30;
69224;PMS1003;56333;51.306;17.056;2023-12-28T00:06:04;16.70;7.90;
69224;PMS1003;56333;51.306;17.056;2023-12-28T00:07:33;24.10;15.10;
69224;PMS1003;56333;51.306;17.056;2023-12-28T00:09:01;23.10;14.30;
69224;PMS1003;56333;51.306;17.056;2023-12-28T00:10:29;23.10;15.00;
69224;PMS1003;56333;51.306;17.056;2023-12-28T00:11:59;24.80;15.30;
69224;PMS1003;56333;51.306;17.056;2023-12-28T00:13:27;24.60;15.50;
69224;PMS1003;56333;51.306;17.056;2023-12-28T00:14:57;23.90;15.30;
69224;PMS1003;56333;51.306;17.056;2023-12-28T00:16:25;24.50;10.20;
69224;PMS1003;56333;51.306;17.056;2023-12-28T00:17:53;23.50;15.80;
69224;PMS1003;56333;51.306;17.056;2023-12-28T00:19:21;25.00;9.50;
69224;PMS1003;56333;51.306;17.056;2023-12-28T00:20:49;22.70;14.90;
69224;PMS1003;56333;51.306;17.056;2023-12-28T00:22:17;24.90;16.50;
69224;PMS1003;56333;51.306;17.056;2023-12-28T00:23:45;24.30;16.20;
69224;PMS1003;56333;51.306;17.056;2023-12-28T00:25:14;25.50;16.60;
69224;PMS1003;56333;51.306;17.056;2023-12-28T00:26:42;26.30;17.60;
69224;PMS1003;56333;51.306;17.056;2023-12-28T00:28:10;27.20;18.00;
69224;PMS1003;56333;51.306;17.056;2023-12-28T00:29:38;27.70;18.20;
69224;PMS1003;56333;51.306;17.056;2023-12-28T00:31:08;26.30;17.20;
69224;PMS1003;56333;51.306;17.056;2023-12-28T00:32:36;25.80;17.30;
69224;PMS1003;56333;51.306;17.056;2023-12-28T00:34:08;26.20;17.00;
69224;PMS1003;56333;51.306;17.056;2023-12-28T00:35:36;25.10;16.30;
69224;PMS1003;56333;51.306;17.056;2023-12-28T00:37:04;26.10;17.50;
69224;PMS1003;56333;51.306;17.056;2023-12-28T00:38:33;25.00;16.40;
69224;PMS1003;56333;51.306;17.056;2023-12-28T00:40:00;24.40;16.40;
69224;PMS1003;56333;51.306;17.056;2023-12-28T00:41:29;25.70;17.00;
69224;PMS1003;56333;51.306;17.056;2023-12-28T00:42:57;28.20;17.80;
69224;PMS1003;56333;51.306;17.056;2023-12-28T00:44:25;29.00;18.70;
69224;PMS1003;56333;51.306;17.056;2023-12-28T00:45:53;26.20;11.00;
69224;PMS1003;56333;51.306;17.056;2023-12-28T00:47:21;27.90;18.70;
69224;PMS1003;56333;51.306;17.056;2023-12-28T00:48:49;27.70;18.90;
69224;PMS1003;56333;51.306;17.056;2023-12-28T00:50:17;28.20;18.50;
69224;PMS1003;56333;51.306;17.056;2023-12-28T00:51:47;27.30;18.10;
69224;PMS1003;56333;51.306;17.056;2023-12-28T00:53:15;26.20;17.90;
69224;PMS1003;56333;51.306;17.056;2023-12-28T00:54:45;20.30;9.30;
69224;PMS1003;56333;51.306;17.056;2023-12-28T00:56:13;28.00;17.60;
69224;PMS1003;56333;51.306;17.056;2023-12-28T00:57:41;26.90;17.10;
69224;PMS1003;56333;51.306;17.056;2023-12-28T00:59:09;26.50;16.80;
69224;PMS1003;56333;51.306;17.056;2023-12-28T01:00:38;27.30;17.90;
69224;PMS1003;56333;51.306;17.056;2023-12-28T01:02:07;26.80;17.50;
69224;PMS1003;56333;51.306;17.056;2023-12-28T01:03:35;25.30;17.40;
69224;PMS1003;56333;51.306;17.056;2023-12-28T01:05:04;27.10;11.10;
69224;PMS1003;56333;51.306;17.056;2023-12-28T01:06:32;26.90;18.10;
69224;PMS1003;56333;51.306;17.056;2023-12-28T01:08:01;26.50;18.00;
69224;PMS1003;56333;51.306;17.056;2023-12-28T01:09:29;25.90;11.10;
69224;PMS1003;56333;51.306;17.056;2023-12-28T01:10:58;26.70;17.90;
69224;PMS1003;56333;51.306;17.056;2023-12-28T01:12:26;26.50;17.60;
69224;PMS1003;56333;51.306;17.056;2023-12-28T01:13:55;26.20;17.10;
69224;PMS1003;56333;51.306;17.056;2023-12-28T01:15:24;25.70;16.50;
69224;PMS1003;56333;51.306;17.056;2023-12-28T01:16:53;25.00;17.10;
69224;PMS1003;56333;51.306;17.056;2023-12-28T01:18:21;26.20;17.00;
69224;PMS1003;56333;51.306;17.056;2023-12-28T01:19:50;25.30;17.00;
69224;PMS1003;56333;51.306;17.056;2023-12-28T01:21:19;28.70;19.00;
69224;PMS1003;56333;51.306;17.056;2023-12-28T01:22:47;27.30;18.20;
69224;PMS1003;56333;51.306;17.056;2023-12-28T01:24:16;27.90;18.70;
69224;PMS1003;56333;51.306;17.056;2023-12-28T01:25:44;25.30;17.20;
69224;PMS1003;56333;51.306;17.056;2023-12-28T01:27:12;27.80;18.50;
69224;PMS1003;56333;51.306;17.056;2023-12-28T01:28:40;28.80;18.70;
69224;PMS1003;56333;51.306;17.056;2023-12-28T01:30:10;21.30;10.10;
69224;PMS1003;56333;51.306;17.056;2023-12-28T01:31:39;27.50;17.90;
69224;PMS1003;56333;51.306;17.056;2023-12-28T01:33:07;25.60;17.60;
69224;PMS1003;56333;51.306;17.056;2023-12-28T01:34:36;26.40;17.20;
69224;PMS1003;56333;51.306;17.056;2023-12-28T01:36:13;24.00;17.00;
69224;PMS1003;56333;51.306;17.056;2023-12-28T01:37:43;20.40;8.60;
69224;PMS1003;56333;51.306;17.056;2023-12-28T01:39:11;19.70;7.80;
69224;PMS1003;56333;51.306;17.056;2023-12-28T01:40:45;25.10;16.80;
69224;PMS1003;56333;51.306;17.056;2023-12-28T01:42:14;26.70;15.90;
69224;PMS1003;56333;51.306;17.056;2023-12-28T01:43:42;23.00;15.30;
69224;PMS1003;56333;51.306;17.056;2023-12-28T01:45:11;24.00;10.80;
69224;PMS1003;56333;51.306;17.056;2023-12-28T01:46:39;23.70;16.20;
69224;PMS1003;56333;51.306;17.056;2023-12-28T01:48:10;24.90;17.10;
69224;PMS1003;56333;51.306;17.056;2023-12-28T01:49:38;24.00;16.80;
69224;PMS1003;56333;51.306;17.056;2023-12-28T01:51:08;26.00;10.80;
69224;PMS1003;56333;51.306;17.056;2023-12-28T01:52:36;24.50;15.50;
69224;PMS1003;56333;51.306;17.056;2023-12-28T01:54:05;27.50;18.10;
69224;PMS1003;56333;51.306;17.056;2023-12-28T01:55:33;25.50;17.00;
69224;PMS1003;56333;51.306;17.056;2023-12-28T01:57:03;26.60;18.00;
69224;PMS1003;56333;51.306;17.056;2023-12-28T01:58:34;28.10;18.30;
69224;PMS1003;56333;51.306;17.056;2023-12-28T02:00:04;25.60;11.20;
69224;PMS1003;56333;51.306;17.056;2023-12-28T02:01:40;29.70;18.70;
69224;PMS1003;56333;51.306;17.056;2023-12-28T02:03:09;28.00;18.10;
69224;PMS1003;56333;51.306;17.056;2023-12-28T02:04:38;27.10;17.70;
69224;PMS1003;56333;51.306;17.056;2023-12-28T02:06:08;18.10;7.20;
69224;PMS1003;56333;51.306;17.056;2023-12-28T02:07:37;25.00;17.10;
69224;PMS1003;56333;51.306;17.056;2023-12-28T02:09:06;25.10;16.30;
69224;PMS1003;56333;51.306;17.056;2023-12-28T02:10:34;26.40;11.00;
69224;PMS1003;56333;51.306;17.056;2023-12-28T02:12:03;26.70;17.40;
69224;PMS1003;56333;51.306;17.056;2023-12-28T02:13:32;24.10;16.70;
69224;PMS1003;56333;51.306;17.056;2023-12-28T02:15:01;25.50;17.40;
69224;PMS1003;56333;51.306;17.056;2023-12-28T02:16:33;25.10;17.30;
69224;PMS1003;56333;51.306;17.056;2023-12-28T02:18:10;24.70;17.00;
69224;PMS1003;56333;51.306;17.056;2023-12-28T02:19:46;27.30;17.00;
69224;PMS1003;56333;51.306;17.056;2023-12-28T02:21:17;16.10;7.50;
69224;PMS1003;56333;51.306;17.056;2023-12-28T02:22:46;22.40;9.50;
69224;PMS1003;56333;51.306;17.056;2023-12-28T02:24:14;24.10;15.70;
69224;PMS1003;56333;51.306;17.056;2023-12-28T02:25:44;23.40;15.60;
69224;PMS1003;56333;51.306;17.056;2023-12-28T02:27:12;24.10;16.10;
69224;PMS1003;56333;51.306;17.056;2023-12-28T02:28:40;24.10;9.10;
69224;PMS1003;56333;51.306;17.056;2023-12-28T02:30:11;26.00;16.00;
69224;PMS1003;56333;51.306;17.056;2023-12-28T02:33:15;25.20;16.50;
69224;PMS1003;56333;51.306;17.056;2023-12-28T02:34:48;24.80;16.70;
69224;PMS1003;56333;51.306;17.056;2023-12-28T02:36:24;19.50;8.10;
69224;PMS1003;56333;51.306;17.056;2023-12-28T02:37:58;22.30;8.20;
69224;PMS1003;56333;51.306;17.056;2023-12-28T02:39:30;23.50;16.30;
69224;PMS1003;56333;51.306;17.056;2023-12-28T02:40:58;24.40;16.30;
69224;PMS1003;56333;51.306;17.056;2023-12-28T02:42:27;23.10;10.40;
69224;PMS1003;56333;51.306;17.056;2023-12-28T02:43:55;22.80;15.90;
69224;PMS1003;56333;51.306;17.056;2023-12-28T02:45:24;22.80;14.90;
69224;PMS1003;56333;51.306;17.056;2023-12-28T02:46:52;23.60;15.90;
69224;PMS1003;56333;51.306;17.056;2023-12-28T02:48:20;25.00;16.00;
69224;PMS1003;56333;51.306;17.056;2023-12-28T02:49:48;24.10;16.10;
69224;PMS1003;56333;51.306;17.056;2023-12-28T02:51:17;15.80;7.30;
69224;PMS1003;56333;51.306;17.056;2023-12-28T02:52:45;21.40;15.10;
69224;PMS1003;56333;51.306;17.056;2023-12-28T02:54:14;23.90;15.30;
69224;PMS1003;56333;51.306;17.056;2023-12-28T02:55:43;23.70;8.70;
69224;PMS1003;56333;51.306;17.056;2023-12-28T02:57:12;24.10;15.70;
69224;PMS1003;56333;51.306;17.056;2023-12-28T03:00:12;20.30;8.10;
69224;PMS1003;56333;51.306;17.056;2023-12-28T03:01:41;18.50;6.50;
69224;PMS1003;56333;51.306;17.056;2023-12-28T03:03:09;23.00;16.00;
69224;PMS1003;56333;51.306;17.056;2023-12-28T03:04:37;23.30;14.80;
69224;PMS1003;56333;51.306;17.056;2023-12-28T03:06:06;20.20;14.40;
69224;PMS1003;56333;51.306;17.056;2023-12-28T03:07:35;19.70;14.30;
69224;PMS1003;56333;51.306;17.056;2023-12-28T03:09:05;22.40;14.40;
69224;PMS1003;56333;51.306;17.056;2023-12-28T03:10:33;19.70;8.90;
69224;PMS1003;56333;51.306;17.056;2023-12-28T03:12:02;20.80;14.20;
69224;PMS1003;56333;51.306;17.056;2023-12-28T03:13:30;20.60;14.00;
69224;PMS1003;56333;51.306;17.056;2023-12-28T03:14:58;17.90;12.50;
69224;PMS1003;56333;51.306;17.056;2023-12-28T03:16:26;18.80;12.40;
69224;PMS1003;56333;51.306;17.056;2023-12-28T03:17:54;18.10;12.40;
69224;PMS1003;56333;51.306;17.056;2023-12-28T03:19:22;20.20;12.30;
69224;PMS1003;56333;51.306;17.056;2023-12-28T03:20:50;16.90;11.70;
69224;PMS1003;56333;51.306;17.056;2023-12-28T03:22:19;16.80;11.80;
69224;PMS1003;56333;51.306;17.056;2023-12-28T03:23:48;17.80;11.70;
69224;PMS1003;56333;51.306;17.056;2023-12-28T03:25:16;17.20;11.50;
69224;PMS1003;56333;51.306;17.056;2023-12-28T03:26:45;16.40;11.30;
69224;PMS1003;56333;51.306;17.056;2023-12-28T03:28:12;18.20;11.70;
69224;PMS1003;56333;51.306;17.056;2023-12-28T03:29:42;17.20;11.50;
69224;PMS1003;56333;51.306;17.056;2023-12-28T03:31:10;16.10;10.50;
69224;PMS1003;56333;51.306;17.056;2023-12-28T03:32:38;15.90;11.30;
69224;PMS1003;56333;51.306;17.056;2023-12-28T03:34:06;16.50;10.90;
69224;PMS1003;56333;51.306;17.056;2023-12-28T03:35:35;17.40;11.60;
69224;PMS1003;56333;51.306;17.056;2023-12-28T03:37:04;17.80;11.30;
69224;PMS1003;56333;51.306;17.056;2023-12-28T03:38:32;17.00;11.20;
69224;PMS1003;56333;51.306;17.056;2023-12-28T03:40:01;15.40;10.90;
69224;PMS1003;56333;51.306;17.056;2023-12-28T03:41:29;14.70;10.20;
69224;PMS1003;56333;51.306;17.056;2023-12-28T03:42:57;15.30;9.70;
69224;PMS1003;56333;51.306;17.056;2023-12-28T03:44:25;14.10;10.30;
69224;PMS1003;56333;51.306;17.056;2023-12-28T03:45:53;15.10;10.00;
69224;PMS1003;56333;51.306;17.056;2023-12-28T03:47:21;16.50;10.90;
69224;PMS1003;56333;51.306;17.056;2023-12-28T03:48:49;17.90;10.80;
69224;PMS1003;56333;51.306;17.056;2023-12-28T03:50:18;15.20;10.40;
69224;PMS1003;56333;51.306;17.056;2023-12-28T03:51:46;14.80;6.60;
69224;PMS1003;56333;51.306;17.056;2023-12-28T03:53:15;14.00;9.90;
69224;PMS1003;56333;51.306;17.056;2023-12-28T03:54:44;16.10;10.50;
69224;PMS1003;56333;51.306;17.056;2023-12-28T03:56:22;16.50;10.70;
69224;PMS1003;56333;51.306;17.056;2023-12-28T03:57:52;16.50;10.40;
69224;PMS1003;56333;51.306;17.056;2023-12-28T03:59:20;15.60;10.80;
69224;PMS1003;56333;51.306;17.056;2023-12-28T04:00:48;16.20;10.70;
69224;PMS1003;56333;51.306;17.056;2023-12-28T04:02:16;15.00;11.00;
69224;PMS1003;56333;51.306;17.056;2023-12-28T04:03:44;13.80;10.20;
69224;PMS1003;56333;51.306;17.056;2023-12-28T04:05:12;14.60;10.10;
69224;PMS1003;56333;51.306;17.056;2023-12-28T04:06:40;14.40;9.90;
69224;PMS1003;56333;51.306;17.056;2023-12-28T04:08:09;14.00;9.20;
69224;PMS1003;56333;51.306;17.056;2023-12-28T04:09:37;14.60;9.50;
69224;PMS1003;56333;51.306;17.056;2023-12-28T04:11:06;13.40;9.40;
69224;PMS1003;56333;51.306;17.056;2023-12-28T04:12:34;12.90;9.40;
69224;PMS1003;56333;51.306;17.056;2023-12-28T04:14:03;14.10;9.80;
69224;PMS1003;56333;51.306;17.056;2023-12-28T04:15:31;12.50;8.80;
69224;PMS1003;56333;51.306;17.056;2023-12-28T04:17:00;13.10;9.40;
69224;PMS1003;56333;51.306;17.056;2023-12-28T04:18:28;14.30;9.90;
69224;PMS1003;56333;51.306;17.056;2023-12-28T04:19:57;8.30;3.90;
69224;PMS1003;56333;51.306;17.056;2023-12-28T04:21:27;12.20;8.40;
69224;PMS1003;56333;51.306;17.056;2023-12-28T04:22:55;12.40;8.20;
69224;PMS1003;56333;51.306;17.056;2023-12-28T04:24:23;12.20;7.90;
69224;PMS1003;56333;51.306;17.056;2023-12-28T04:25:51;10.60;7.50;
69224;PMS1003;56333;51.306;17.056;2023-12-28T04:27:19;11.00;7.60;
69224;PMS1003;56333;51.306;17.056;2023-12-28T04:28:48;10.90;7.30;
69224;PMS1003;56333;51.306;17.056;2023-12-28T04:30:16;10.20;6.90;
69224;PMS1003;56333;51.306;17.056;2023-12-28T04:31:45;10.50;7.70;
69224;PMS1003;56333;51.306;17.056;2023-12-28T04:33:13;10.80;7.70;
69224;PMS1003;56333;51.306;17.056;2023-12-28T04:34:46;10.60;7.20;
69224;PMS1003;56333;51.306;17.056;2023-12-28T04:36:14;11.90;7.40;
69224;PMS1003;56333;51.306;17.056;2023-12-28T04:37:42;10.00;7.50;
69224;PMS1003;56333;51.306;17.056;2023-12-28T04:39:11;9.50;7.30;
69224;PMS1003;56333;51.306;17.056;2023-12-28T04:40:39;10.40;7.20;
69224;PMS1003;56333;51.306;17.056;2023-12-28T04:42:08;10.50;7.20;
69224;PMS1003;56333;51.306;17.056;2023-12-28T04:43:36;9.80;6.60;
69224;PMS1003;56333;51.306;17.056;2023-12-28T04:45:06;9.90;6.90;
69224;PMS1003;56333;51.306;17.056;2023-12-28T04:46:39;9.00;3.40;
69224;PMS1003;56333;51.306;17.056;2023-12-28T04:48:09;11.60;8.10;
69224;PMS1003;56333;51.306;17.056;2023-12-28T04:49:38;12.40;8.20;
69224;PMS1003;56333;51.306;17.056;2023-12-28T04:51:06;10.60;7.80;
69224;PMS1003;56333;51.306;17.056;2023-12-28T04:52:35;11.00;7.80;
69224;PMS1003;56333;51.306;17.056;2023-12-28T04:54:04;11.00;7.80;
69224;PMS1003;56333;51.306;17.056;2023-12-28T04:55:32;10.00;7.40;
69224;PMS1003;56333;51.306;17.056;2023-12-28T04:57:00;9.80;7.00;
69224;PMS1003;56333;51.306;17.056;2023-12-28T04:58:29;10.80;7.30;
69224;PMS1003;56333;51.306;17.056;2023-12-28T04:59:57;11.40;8.00;
69224;PMS1003;56333;51.306;17.056;2023-12-28T05:01:25;9.80;7.30;
69224;PMS1003;56333;51.306;17.056;2023-12-28T05:02:56;11.70;8.00;
69224;PMS1003;56333;51.306;17.056;2023-12-28T05:04:24;12.30;8.10;
69224;PMS1003;56333;51.306;17.056;2023-12-28T05:05:52;11.30;7.80;
69224;PMS1003;56333;51.306;17.056;2023-12-28T05:07:21;12.60;8.30;
69224;PMS1003;56333;51.306;17.056;2023-12-28T05:08:48;12.40;7.60;
69224;PMS1003;56333;51.306;17.056;2023-12-28T05:10:17;10.80;7.40;
69224;PMS1003;56333;51.306;17.056;2023-12-28T05:11:45;9.90;7.10;
69224;PMS1003;56333;51.306;17.056;2023-12-28T05:13:13;11.40;8.00;
69224;PMS1003;56333;51.306;17.056;2023-12-28T05:14:42;9.90;7.20;
69224;PMS1003;56333;51.306;17.056;2023-12-28T05:16:10;9.70;7.10;
69224;PMS1003;56333;51.306;17.056;2023-12-28T05:17:38;9.30;6.50;
69224;PMS1003;56333;51.306;17.056;2023-12-28T05:19:06;11.30;7.60;
69224;PMS1003;56333;51.306;17.056;2023-12-28T05:20:34;10.00;7.10;
69224;PMS1003;56333;51.306;17.056;2023-12-28T05:22:02;8.70;6.60;
69224;PMS1003;56333;51.306;17.056;2023-12-28T05:23:33;11.20;6.90;
69224;PMS1003;56333;51.306;17.056;2023-12-28T05:25:01;10.00;7.10;
69224;PMS1003;56333;51.306;17.056;2023-12-28T05:26:31;9.90;6.80;
69224;PMS1003;56333;51.306;17.056;2023-12-28T05:27:58;10.50;7.40;
69224;PMS1003;56333;51.306;17.056;2023-12-28T05:29:26;10.00;6.80;
69224;PMS1003;56333;51.306;17.056;2023-12-28T05:30:54;11.00;7.00;
69224;PMS1003;56333;51.306;17.056;2023-12-28T05:32:24;10.20;7.00;
69224;PMS1003;56333;51.306;17.056;2023-12-28T05:33:52;9.90;7.20;
69224;PMS1003;56333;51.306;17.056;2023-12-28T05:35:20;10.60;7.30;
69224;PMS1003;56333;51.306;17.056;2023-12-28T05:36:48;9.00;7.00;
69224;PMS1003;56333;51.306;17.056;2023-12-28T05:38:16;10.40;7.30;
69224;PMS1003;56333;51.306;17.056;2023-12-28T05:39:43;11.60;7.80;
69224;PMS1003;56333;51.306;17.056;2023-12-28T05:41:13;10.90;7.30;
69224;PMS1003;56333;51.306;17.056;2023-12-28T05:42:41;11.00;7.20;
69224;PMS1003;56333;51.306;17.056;2023-12-28T05:44:09;10.90;6.70;
69224;PMS1003;56333;51.306;17.056;2023-12-28T05:45:37;9.50;6.70;
69224;PMS1003;56333;51.306;17.056;2023-12-28T05:47:05;9.50;6.70;
69224;PMS1003;56333;51.306;17.056;2023-12-28T05:48:33;10.00;6.90;
69224;PMS1003;56333;51.306;17.056;2023-12-28T05:50:01;9.70;6.40;
69224;PMS1003;56333;51.306;17.056;2023-12-28T05:51:31;9.80;6.80;
69224;PMS1003;56333;51.306;17.056;2023-12-28T05:53:06;9.50;6.60;
69224;PMS1003;56333;51.306;17.056;2023-12-28T05:54:39;10.20;7.00;
69224;PMS1003;56333;51.306;17.056;2023-12-28T05:56:09;9.30;6.90;
69224;PMS1003;56333;51.306;17.056;2023-12-28T05:57:37;9.50;6.30;
69224;PMS1003;56333;51.306;17.056;2023-12-28T05:59:05;9.00;6.20;
69224;PMS1003;56333;51.306;17.056;2023-12-28T06:00:34;9.40;6.20;
69224;PMS1003;56333;51.306;17.056;2023-12-28T06:02:04;8.40;6.10;
69224;PMS1003;56333;51.306;17.056;2023-12-28T06:03:32;9.40;6.20;
69224;PMS1003;56333;51.306;17.056;2023-12-28T06:05:01;7.90;5.80;
69224;PMS1003;56333;51.306;17.056;2023-12-28T06:06:29;9.40;5.60;
69224;PMS1003;56333;51.306;17.056;2023-12-28T06:07:57;7.40;5.40;
69224;PMS1003;56333;51.306;17.056;2023-12-28T06:09:25;7.70;5.40;
69224;PMS1003;56333;51.306;17.056;2023-12-28T06:10:54;9.30;5.70;
69224;PMS1003;56333;51.306;17.056;2023-12-28T06:12:22;8.30;5.30;
69224;PMS1003;56333;51.306;17.056;2023-12-28T06:13:50;9.40;5.70;
69224;PMS1003;56333;51.306;17.056;2023-12-28T06:15:17;6.80;5.20;
69224;PMS1003;56333;51.306;17.056;2023-12-28T06:16:45;7.10;5.20;
69224;PMS1003;56333;51.306;17.056;2023-12-28T06:18:14;8.30;5.20;
69224;PMS1003;56333;51.306;17.056;2023-12-28T06:19:42;7.60;5.70;
69224;PMS1003;56333;51.306;17.056;2023-12-28T06:21:11;7.60;5.10;
69224;PMS1003;56333;51.306;17.056;2023-12-28T06:22:40;8.10;5.60;
69224;PMS1003;56333;51.306;17.056;2023-12-28T06:24:13;9.60;5.60;
69224;PMS1003;56333;51.306;17.056;2023-12-28T06:25:41;8.90;6.00;
69224;PMS1003;56333;51.306;17.056;2023-12-28T06:27:10;8.50;5.80;
69224;PMS1003;56333;51.306;17.056;2023-12-28T06:28:37;8.40;5.60;
69224;PMS1003;56333;51.306;17.056;2023-12-28T06:30:08;8.80;6.00;
69224;PMS1003;56333;51.306;17.056;2023-12-28T06:31:37;8.50;6.00;
69224;PMS1003;56333;51.306;17.056;2023-12-28T06:33:06;8.60;5.90;
69224;PMS1003;56333;51.306;17.056;2023-12-28T06:34:34;8.40;5.60;
69224;PMS1003;56333;51.306;17.056;2023-12-28T06:36:08;8.70;5.90;
69224;PMS1003;56333;51.306;17.056;2023-12-28T06:37:37;9.40;6.20;
69224;PMS1003;56333;51.306;17.056;2023-12-28T06:39:05;8.70;5.90;
69224;PMS1003;56333;51.306;17.056;2023-12-28T06:40:33;8.50;5.60;
69224;PMS1003;56333;51.306;17.056;2023-12-28T06:42:01;8.50;5.90;
69224;PMS1003;56333;51.306;17.056;2023-12-28T06:43:30;7.30;5.40;
69224;PMS1003;56333;51.306;17.056;2023-12-28T06:44:58;7.70;5.40;
69224;PMS1003;56333;51.306;17.056;2023-12-28T06:46:27;7.70;5.40;
69224;PMS1003;56333;51.306;17.056;2023-12-28T06:47:54;8.20;5.50;
69224;PMS1003;56333;51.306;17.056;2023-12-28T06:49:22;8.00;5.70;
69224;PMS1003;56333;51.306;17.056;2023-12-28T06:50:50;7.00;5.10;
69224;PMS1003;56333;51.306;17.056;2023-12-28T06:52:18;9.10;6.00;
69224;PMS1003;56333;51.306;17.056;2023-12-28T06:53:46;7.00;5.20;
69224;PMS1003;56333;51.306;17.056;2023-12-28T06:55:15;9.40;5.70;
69224;PMS1003;56333;51.306;17.056;2023-12-28T06:56:42;8.80;5.60;
69224;PMS1003;56333;51.306;17.056;2023-12-28T06:58:11;6.90;5.00;
69224;PMS1003;56333;51.306;17.056;2023-12-28T06:59:39;8.10;5.80;
69224;PMS1003;56333;51.306;17.056;2023-12-28T07:01:07;6.80;4.80;
69224;PMS1003;56333;51.306;17.056;2023-12-28T07:02:36;7.50;5.30;
69224;PMS1003;56333;51.306;17.056;2023-12-28T07:04:04;7.60;4.70;
69224;PMS1003;56333;51.306;17.056;2023-12-28T07:05:33;7.70;5.20;
69224;PMS1003;56333;51.306;17.056;2023-12-28T07:07:01;7.10;4.90;
69224;PMS1003;56333;51.306;17.056;2023-12-28T07:08:29;6.90;4.90;
69224;PMS1003;56333;51.306;17.056;2023-12-28T07:09:57;7.20;5.00;
69224;PMS1003;56333;51.306;17.056;2023-12-28T07:11:25;7.20;5.00;
69224;PMS1003;56333;51.306;17.056;2023-12-28T07:12:53;8.90;5.80;
69224;PMS1003;56333;51.306;17.056;2023-12-28T07:14:21;6.90;5.20;
69224;PMS1003;56333;51.306;17.056;2023-12-28T07:15:49;7.10;5.00;
69224;PMS1003;56333;51.306;17.056;2023-12-28T07:17:19;7.80;5.10;
69224;PMS1003;56333;51.306;17.056;2023-12-28T07:18:46;7.70;5.10;
69224;PMS1003;56333;51.306;17.056;2023-12-28T07:20:15;6.20;4.40;
69224;PMS1003;56333;51.306;17.056;2023-12-28T07:21:42;7.00;4.40;
69224;PMS1003;56333;51.306;17.056;2023-12-28T07:23:10;6.80;4.80;
69224;PMS1003;56333;51.306;17.056;2023-12-28T07:24:38;7.80;5.10;
69224;PMS1003;56333;51.306;17.056;2023-12-28T07:26:06;7.00;4.90;
69224;PMS1003;56333;51.306;17.056;2023-12-28T07:27:35;6.70;4.70;
69224;PMS1003;56333;51.306;17.056;2023-12-28T07:29:03;6.80;4.80;
69224;PMS1003;56333;51.306;17.056;2023-12-28T07:30:32;6.40;4.90;
69224;PMS1003;56333;51.306;17.056;2023-12-28T07:32:00;8.30;4.90;
69224;PMS1003;56333;51.306;17.056;2023-12-28T07:33:29;7.10;5.20;
69224;PMS1003;56333;51.306;17.056;2023-12-28T07:34:57;6.50;4.40;
69224;PMS1003;56333;51.306;17.056;2023-12-28T07:36:25;9.50;5.50;
69224;PMS1003;56333;51.306;17.056;2023-12-28T07:37:53;7.80;5.60;
69224;PMS1003;56333;51.306;17.056;2023-12-28T07:39:21;9.10;5.90;
69224;PMS1003;56333;51.306;17.056;2023-12-28T07:40:49;8.40;5.40;
69224;PMS1003;56333;51.306;17.056;2023-12-28T07:42:18;8.40;5.70;
69224;PMS1003;56333;51.306;17.056;2023-12-28T07:43:46;9.60;5.70;
69224;PMS1003;56333;51.306;17.056;2023-12-28T07:45:15;8.90;5.40;
69224;PMS1003;56333;51.306;17.056;2023-12-28T07:46:48;8.00;5.20;
69224;PMS1003;56333;51.306;17.056;2023-12-28T07:48:16;7.10;5.10;
69224;PMS1003;56333;51.306;17.056;2023-12-28T07:49:44;6.30;4.10;
69224;PMS1003;56333;51.306;17.056;2023-12-28T07:51:14;6.90;4.50;
69224;PMS1003;56333;51.306;17.056;2023-12-28T07:52:42;6.00;4.30;
69224;PMS1003;56333;51.306;17.056;2023-12-28T07:54:11;6.00;4.40;
69224;PMS1003;56333;51.306;17.056;2023-12-28T07:55:39;6.90;4.50;
69224;PMS1003;56333;51.306;17.056;2023-12-28T07:57:07;6.20;4.40;
69224;PMS1003;56333;51.306;17.056;2023-12-28T07:58:35;8.10;5.60;
69224;PMS1003;56333;51.306;17.056;2023-12-28T08:00:06;7.90;4.70;
69224;PMS1003;56333;51.306;17.056;2023-12-28T08:01:35;7.70;5.40;
69224;PMS1003;56333;51.306;17.056;2023-12-28T08:03:03;7.20;5.00;
69224;PMS1003;56333;51.306;17.056;2023-12-28T08:04:31;11.10;7.30;
69224;PMS1003;56333;51.306;17.056;2023-12-28T08:05:59;23.50;15.20;
69224;PMS1003;56333;51.306;17.056;2023-12-28T08:07:28;17.10;11.30;
69224;PMS1003;56333;51.306;17.056;2023-12-28T08:08:56;11.40;7.30;
69224;PMS1003;56333;51.306;17.056;2023-12-28T08:10:25;7.90;5.50;
69224;PMS1003;56333;51.306;17.056;2023-12-28T08:11:53;6.40;4.60;
69224;PMS1003;56333;51.306;17.056;2023-12-28T08:13:22;26.70;18.80;
69224;PMS1003;56333;51.306;17.056;2023-12-28T08:14:50;28.40;20.70;
69224;PMS1003;56333;51.306;17.056;2023-12-28T08:16:18;28.00;19.30;
69224;PMS1003;56333;51.306;17.056;2023-12-28T08:17:45;19.40;13.50;
69224;PMS1003;56333;51.306;17.056;2023-12-28T08:19:14;29.20;20.90;
69224;PMS1003;56333;51.306;17.056;2023-12-28T08:20:42;23.20;15.90;
69224;PMS1003;56333;51.306;17.056;2023-12-28T08:22:10;19.10;13.30;
69224;PMS1003;56333;51.306;17.056;2023-12-28T08:23:39;11.20;7.40;
69224;PMS1003;56333;51.306;17.056;2023-12-28T08:25:07;9.20;6.20;
69224;PMS1003;56333;51.306;17.056;2023-12-28T08:26:36;6.30;4.60;
69224;PMS1003;56333;51.306;17.056;2023-12-28T08:28:05;5.00;3.80;
69224;PMS1003;56333;51.306;17.056;2023-12-28T08:29:33;6.60;4.00;
69224;PMS1003;56333;51.306;17.056;2023-12-28T08:31:01;5.90;3.90;
69224;PMS1003;56333;51.306;17.056;2023-12-28T08:32:30;5.40;3.90;
69224;PMS1003;56333;51.306;17.056;2023-12-28T08:33:58;5.90;3.80;
69224;PMS1003;56333;51.306;17.056;2023-12-28T08:35:25;6.30;4.40;
69224;PMS1003;56333;51.306;17.056;2023-12-28T08:36:54;4.60;3.50;
69224;PMS1003;56333;51.306;17.056;2023-12-28T08:38:21;5.50;3.70;
69224;PMS1003;56333;51.306;17.056;2023-12-28T08:39:49;5.80;3.50;
69224;PMS1003;56333;51.306;17.056;2023-12-28T08:41:22;6.00;4.00;
69224;PMS1003;56333;51.306;17.056;2023-12-28T08:42:52;4.70;3.60;
69224;PMS1003;56333;51.306;17.056;2023-12-28T08:44:20;5.40;3.70;
69224;PMS1003;56333;51.306;17.056;2023-12-28T08:45:48;5.40;3.70;
69224;PMS1003;56333;51.306;17.056;2023-12-28T08:47:17;5.70;4.10;
69224;PMS1003;56333;51.306;17.056;2023-12-28T08:48:45;6.50;4.00;
69224;PMS1003;56333;51.306;17.056;2023-12-28T08:50:13;5.10;3.80;
69224;PMS1003;56333;51.306;17.056;2023-12-28T08:51:41;5.60;3.50;
69224;PMS1003;56333;51.306;17.056;2023-12-28T08:53:09;5.70;3.60;
69224;PMS1003;56333;51.306;17.056;2023-12-28T08:54:36;5.40;3.80;
69224;PMS1003;56333;51.306;17.056;2023-12-28T08:56:11;5.00;3.50;
69224;PMS1003;56333;51.306;17.056;2023-12-28T08:57:41;4.80;3.50;
69224;PMS1003;56333;51.306;17.056;2023-12-28T08:59:09;5.60;3.80;